Time;durP1;ratioP1;P1;durP2;ratioP2;P2;SDS_P1;SDS_P2;PMS_P1;PMS_P2;Temp;Humidity;BMP_temperature;BMP_pressure;BME280_temperature;BME280_humidity;BME280_pressure;Samples;Min_cycle;Max_cycle;Signal;HPM_P1;HPM_P2
2022/11/28 09:54:32;;;;;;;4.00;3.60;;;;;;;17.42;48.77;100108.38;10224954;27;43638;-71
2022/11/28 09:59:26;;;;;;;3.90;3.60;;;;;;;17.57;48.38;100094.41;10178098;27;65564;-72
2022/11/28 10:04:21;;;;;;;3.50;3.20;;;;;;;17.71;48.17;100092.53;10177617;27;66318;-70
2022/11/28 10:09:24;;;;;;;3.50;3.20;;;;;;;17.77;48.22;100087.78;10167757;27;66518;-72
2022/11/28 10:14:39;;;;;;;4.47;3.30;;;;;;;17.81;47.94;100089.63;10170544;27;66464;-72
2022/11/28 10:19:33;;;;;;;3.60;3.30;;;;;;;17.99;48.29;100084.38;10183616;27;66959;-74
2022/11/28 10:24:29;;;;;;;5.07;3.40;;;;;;;18.13;48.49;100076.94;10180778;27;65993;-73
2022/11/28 10:29:24;;;;;;;4.75;3.30;;;;;;;18.19;48.28;100075.72;10169660;27;66446;-74
2022/11/28 10:34:19;;;;;;;5.97;3.10;;;;;;;18.24;48.65;100075.59;10163264;27;66456;-75
2022/11/28 10:39:11;;;;;;;3.67;3.38;;;;;;;18.37;48.31;100069.31;10175680;27;66053;-75
2022/11/28 10:44:06;;;;;;;4.13;3.28;;;;;;;18.42;48.52;100069.19;10171807;27;66119;-78
2022/11/28 10:49:02;;;;;;;4.53;3.25;;;;;;;18.52;48.34;100065.44;10165665;27;65571;-79
2022/11/28 10:54:02;;;;;;;3.60;3.30;;;;;;;18.64;48.33;100067.66;10177652;27;66234;-76
2022/11/28 10:58:57;;;;;;;17.52;11.05;;;;;;;14.04;46.58;100072.28;10171639;27;65496;-74
2022/11/28 11:03:49;;;;;;;13.30;12.00;;;;;;;12.19;50.86;100068.94;10157979;27;65228;-76
2022/11/28 11:08:41;;;;;;;9.65;8.65;;;;;;;16.48;44.50;100056.34;10146984;27;65544;-75
2022/11/28 11:13:35;;;;;;;7.57;6.70;;;;;;;17.17;43.71;100052.06;10150841;27;65755;-73
2022/11/28 11:18:28;;;;;;;8.60;5.47;;;;;;;17.55;43.64;100050.06;10149569;27;66752;-74
2022/11/28 11:23:21;;;;;;;6.43;5.40;;;;;;;17.76;43.86;100054.06;10142912;27;66353;-73
2022/11/28 11:28:26;;;;;;;7.13;4.38;;;;;;;17.92;43.92;100053.78;10136063;27;66385;-78
2022/11/28 11:33:19;;;;;;;4.20;3.80;;;;;;;18.08;43.86;100052.38;10155621;27;66432;-75
2022/11/28 11:38:17;;;;;;;4.75;3.95;;;;;;;18.12;43.97;100042.41;10150164;27;66412;-74
2022/11/28 11:43:23;;;;;;;4.28;3.88;;;;;;;18.25;44.04;100033.34;10147154;27;66091;-75
2022/11/28 11:48:15;;;;;;;4.18;3.78;;;;;;;18.28;44.50;100038.22;10148932;28;66285;-74
2022/11/28 11:53:13;;;;;;;4.13;3.30;;;;;;;18.46;44.68;100033.69;10151692;27;66411;-77
2022/11/28 11:58:05;;;;;;;4.00;3.60;;;;;;;18.47;44.74;100032.59;10139307;27;66137;-75
2022/11/28 12:02:58;;;;;;;3.90;3.35;;;;;;;18.49;44.77;100042.16;10148261;27;66200;-75
2022/11/28 12:07:55;;;;;;;3.30;3.00;;;;;;;18.53;44.60;100043.13;10153955;27;66422;-82
2022/11/28 12:12:49;;;;;;;5.30;3.40;;;;;;;18.56;44.74;100037.06;10139331;28;65967;-76
2022/11/28 12:17:44;;;;;;;4.65;3.47;;;;;;;18.62;44.91;100043.25;10147104;27;65571;-72
2022/11/28 12:22:39;;;;;;;4.07;3.33;;;;;;;18.78;44.54;100046.47;10136444;27;65653;-73
2022/11/28 12:27:45;;;;;;;4.07;3.20;;;;;;;18.80;44.57;100042.31;10146181;28;65343;-75
2022/11/28 12:32:42;;;;;;;3.63;2.97;;;;;;;18.88;44.50;100036.06;10142410;27;64188;-75
2022/11/28 12:37:39;;;;;;;3.95;3.33;;;;;;;18.89;44.47;100032.22;10132738;27;66946;-74
2022/11/28 12:42:39;;;;;;;3.35;3.05;;;;;;;18.91;44.86;100034.63;10144578;28;65385;-75
2022/11/28 12:47:36;;;;;;;4.63;3.40;;;;;;;18.92;44.80;100026.06;10137743;28;66025;-74
2022/11/28 12:52:33;;;;;;;3.80;2.97;;;;;;;18.80;44.96;100022.25;10135680;27;65362;-73
2022/11/28 12:57:28;;;;;;;3.50;3.20;;;;;;;18.84;44.73;100021.31;10137310;27;65563;-78
2022/11/28 13:02:26;;;;;;;4.47;3.55;;;;;;;19.07;44.79;100018.56;10137827;28;66028;-75
2022/11/28 13:07:21;;;;;;;5.85;4.20;;;;;;;18.96;45.30;100020.78;10148315;27;66093;-72
2022/11/28 13:12:21;;;;;;;8.02;4.43;;;;;;;18.81;45.90;100013.72;10153896;27;66360;-73
2022/11/28 13:17:19;;;;;;;6.78;4.72;;;;;;;18.84;46.03;100006.78;10151169;27;66722;-72
2022/11/28 13:22:13;;;;;;;9.38;5.30;;;;;;;18.79;46.30;100007.72;10155071;27;66348;-73
2022/11/28 13:27:09;;;;;;;7.85;4.90;;;;;;;18.78;46.58;100005.28;10167113;27;65589;-73
2022/11/28 13:32:05;;;;;;;7.05;5.10;;;;;;;18.79;46.47;100015.13;10148749;27;66337;-73
2022/11/28 13:36:59;;;;;;;8.20;4.90;;;;;;;18.77;46.63;100012.69;10152686;27;66320;-72
2022/11/28 13:41:54;;;;;;;7.40;4.82;;;;;;;18.86;46.30;100015.53;10154419;27;65481;-73
2022/11/28 13:46:46;;;;;;;8.23;5.07;;;;;;;18.88;46.72;100019.59;10145683;27;65491;-73
2022/11/28 13:51:40;;;;;;;7.05;4.43;;;;;;;18.94;46.64;100018.34;10160184;27;66338;-74
2022/11/28 13:56:32;;;;;;;8.90;5.18;;;;;;;18.93;47.43;100015.91;10147184;27;65568;-72
2022/11/28 14:01:24;;;;;;;10.05;4.85;;;;;;;19.02;47.60;100010.47;10153246;27;64546;-73
2022/11/28 14:06:18;;;;;;;10.27;4.75;;;;;;;18.95;47.60;100011.72;10152970;27;65528;-72
2022/11/28 14:11:31;;;;;;;8.65;4.30;;;;;;;18.91;47.54;100005.22;10146864;27;65564;-76
2022/11/28 14:16:30;;;;;;;6.47;4.50;;;;;;;18.91;47.57;100007.97;10142630;27;66141;-71
2022/11/28 14:21:25;;;;;;;9.65;4.68;;;;;;;18.87;47.38;100011.66;10134933;27;65207;-80
2022/11/28 14:26:23;;;;;;;8.38;4.18;;;;;;;18.98;47.09;100016.56;10146156;27;66874;-77
2022/11/28 14:31:30;;;;;;;5.82;3.90;;;;;;;18.92;47.04;100023.31;10144699;27;65140;-73
2022/11/28 14:36:24;;;;;;;6.78;4.30;;;;;;;18.98;47.01;100024.81;10146397;27;65526;-80
2022/11/28 14:41:18;;;;;;;6.25;4.03;;;;;;;19.03;47.06;100031.34;10157425;27;66419;-74
2022/11/28 14:46:31;;;;;;;7.53;3.97;;;;;;;18.89;47.44;100023.16;10147451;27;66156;-74
2022/11/28 14:51:44;;;;;;;8.57;4.22;;;;;;;19.11;47.32;100022.34;10167540;27;67300;-72
2022/11/28 14:56:36;;;;;;;6.88;3.70;;;;;;;18.92;47.17;100028.00;10157667;27;65499;-74
2022/11/28 15:01:38;;;;;;;4.65;3.55;;;;;;;18.88;47.03;100027.00;10148112;28;65679;-73
2022/11/28 15:06:32;;;;;;;6.60;4.07;;;;;;;18.82;47.28;100023.56;10125951;28;66425;-76
2022/11/28 15:11:41;;;;;;;5.72;3.90;;;;;;;18.79;47.30;100031.63;10126650;28;66024;-73
2022/11/28 15:16:34;;;;;;;4.75;3.95;;;;;;;18.76;47.17;100029.47;10136430;28;65534;-72
2022/11/28 15:21:27;;;;;;;7.60;3.70;;;;;;;18.77;47.14;100029.19;10146451;27;66309;-75
2022/11/28 15:26:20;;;;;;;4.32;3.63;;;;;;;18.88;46.78;100032.50;10147122;28;66356;-75
2022/11/28 15:31:20;;;;;;;5.95;3.65;;;;;;;18.92;46.69;100030.75;10149198;28;65856;-71
2022/11/28 15:36:22;;;;;;;4.93;3.30;;;;;;;18.90;46.70;100025.56;10128799;27;66391;-73
2022/11/28 15:41:14;;;;;;;4.97;3.63;;;;;;;18.85;46.74;100024.88;10148839;27;65913;-75
2022/11/28 15:46:06;;;;;;;4.72;3.53;;;;;;;18.89;46.64;100023.97;10147644;27;65540;-73
2022/11/28 15:50:58;;;;;;;5.65;3.63;;;;;;;18.85;46.74;100035.88;10147027;28;66252;-75
2022/11/28 15:56:10;;;;;;;5.75;3.80;;;;;;;18.80;46.91;100036.81;10148417;28;66316;-73
2022/11/28 16:01:04;;;;;;;5.35;3.53;;;;;;;18.77;46.93;100039.34;10146352;28;65378;-72
2022/11/28 16:05:56;;;;;;;4.28;3.67;;;;;;;18.73;46.94;100044.66;10147115;27;66480;-72
2022/11/28 16:10:48;;;;;;;4.60;3.50;;;;;;;18.73;46.90;100043.84;10146357;27;66881;-73
2022/11/28 16:15:45;;;;;;;5.03;3.28;;;;;;;18.69;47.06;100046.38;10145842;27;66280;-72
2022/11/28 16:20:38;;;;;;;4.32;3.30;;;;;;;18.65;47.18;100041.84;10143612;27;65606;-71
2022/11/28 16:25:31;;;;;;;4.65;3.50;;;;;;;18.63;47.26;100038.59;10144442;27;66040;-71
2022/11/28 16:30:43;;;;;;;4.40;3.50;;;;;;;18.61;47.41;100044.38;10141017;28;65347;-72
2022/11/28 16:35:37;;;;;;;5.97;3.90;;;;;;;18.57;47.38;100046.94;10138509;28;66240;-71
2022/11/28 16:40:29;;;;;;;4.30;3.08;;;;;;;18.52;47.41;100048.97;10141381;27;65513;-72
2022/11/28 16:45:24;;;;;;;5.05;3.70;;;;;;;18.53;47.54;100050.56;10137880;28;65498;-72
2022/11/28 16:50:20;;;;;;;4.75;3.38;;;;;;;18.50;47.58;100051.19;10139038;28;64049;-72
2022/11/28 16:55:46;;;;;;;5.55;3.47;;;;;;;18.47;47.70;100046.31;10144518;27;65897;-71
2022/11/28 17:00:39;;;;;;;4.93;3.63;;;;;;;18.50;47.63;100052.00;10148551;27;65754;-71
2022/11/28 17:05:32;;;;;;;6.40;3.85;;;;;;;18.48;47.69;100051.50;10137919;28;66222;-71
2022/11/28 17:10:25;;;;;;;6.15;3.58;;;;;;;18.46;47.92;100050.97;10148417;27;66372;-72
2022/11/28 17:15:18;;;;;;;4.88;3.65;;;;;;;18.45;48.15;100057.59;10156872;27;65481;-72
2022/11/28 17:20:12;;;;;;;5.80;4.00;;;;;;;18.43;48.65;100059.84;10162997;27;66271;-72
2022/11/28 17:25:07;;;;;;;6.35;3.75;;;;;;;18.43;48.75;100054.34;10150056;27;65485;-73
2022/11/28 17:29:59;;;;;;;6.88;4.32;;;;;;;18.40;48.78;100057.72;10144958;27;66311;-74
2022/11/28 17:34:51;;;;;;;5.90;3.72;;;;;;;18.45;48.87;100067.78;10151672;27;66169;-70
2022/11/28 17:40:31;;;;;;;6.38;3.40;;;;;;;18.43;49.04;100068.09;10138309;27;66310;-73
2022/11/28 17:44:57;;;;;;;6.45;3.90;;;;;;;18.42;49.09;100068.38;10131323;27;66175;-72
2022/11/28 17:49:49;;;;;;;6.70;4.05;;;;;;;18.39;49.32;100066.25;10140684;27;66609;-71
2022/11/28 17:54:41;;;;;;;5.63;3.75;;;;;;;18.38;49.22;100067.34;10148791;27;66434;-71
2022/11/28 17:59:34;;;;;;;8.52;3.90;;;;;;;18.38;49.47;100061.88;10143923;27;66370;-72
2022/11/28 18:04:28;;;;;;;5.63;3.75;;;;;;;18.39;49.54;100058.00;10133194;27;66364;-77
2022/11/28 18:09:20;;;;;;;6.45;3.90;;;;;;;18.40;49.63;100057.72;10139321;27;65489;-76
2022/11/28 18:14:12;;;;;;;5.68;4.03;;;;;;;18.55;49.49;100060.13;10141988;27;65601;-71
2022/11/28 18:19:04;;;;;;;6.90;3.95;;;;;;;18.56;49.64;100063.72;10148040;27;66493;-74
2022/11/28 18:23:57;;;;;;;6.40;4.07;;;;;;;18.71;49.50;100071.63;10152118;27;65688;-70
2022/11/28 18:28:49;;;;;;;5.68;3.53;;;;;;;18.66;49.69;100065.44;10143882;27;66312;-71
2022/11/28 18:33:41;;;;;;;4.68;3.47;;;;;;;18.78;49.29;100076.69;10146346;27;66336;-73
2022/11/28 18:38:33;;;;;;;7.40;3.85;;;;;;;18.85;48.99;100072.38;10159882;27;66289;-73
2022/11/28 18:43:27;;;;;;;5.00;3.95;;;;;;;18.94;48.74;100075.22;10155601;27;65558;-73
2022/11/28 18:48:19;;;;;;;4.85;3.50;;;;;;;18.94;48.90;100078.78;10146527;27;66093;-73
